Time;durP1;ratioP1;P1;durP2;ratioP2;P2;SDS_P1;SDS_P2;PMS_P1;PMS_P2;Temp;Humidity;BMP_temperature;BMP_pressure;BME280_temperature;BME280_humidity;BME280_pressure;Samples;Min_cycle;Max_cycle;Signal;HPM_P1;HPM_P2
2023/10/31 00:00:24;;;;;;;0.68;0.43;;;;;;;12.45;65.65;98070.84;10441851;28;20052;-63
2023/10/31 00:05:26;;;;;;;0.40;0.40;;;;;;;12.57;65.68;98083.59;10450957;28;20052;-62
2023/10/31 00:10:29;;;;;;;0.40;0.40;;;;;;;12.57;65.43;98088.84;10449312;28;20118;-62
2023/10/31 00:15:31;;;;;;;0.35;0.35;;;;;;;12.56;65.58;98091.59;10447318;28;20065;-61
2023/10/31 00:20:33;;;;;;;0.75;0.30;;;;;;;12.49;65.27;98090.53;10451590;28;20072;-61
2023/10/31 00:25:36;;;;;;;0.40;0.40;;;;;;;12.37;64.93;98103.03;10440670;28;20382;-61
2023/10/31 00:30:38;;;;;;;0.20;0.20;;;;;;;12.29;65.08;98102.94;10443690;28;20040;-61
2023/10/31 00:35:40;;;;;;;0.20;0.20;;;;;;;12.21;65.06;98105.44;10446059;28;20033;-61
2023/10/31 00:40:42;;;;;;;0.17;0.17;;;;;;;12.12;65.20;98108.94;10443832;28;20040;-61
2023/10/31 00:45:45;;;;;;;0.88;0.50;;;;;;;12.03;65.35;98115.03;10449360;28;21215;-61
2023/10/31 00:50:47;;;;;;;0.30;0.30;;;;;;;12.01;65.66;98111.72;10445216;28;20044;-62
2023/10/31 00:55:49;;;;;;;0.40;0.40;;;;;;;11.98;65.63;98119.88;10444136;28;20099;-62
2023/10/31 01:00:51;;;;;;;2.00;0.55;;;;;;;11.96;65.58;98120.03;10454819;28;20118;-62
2023/10/31 01:05:54;;;;;;;0.55;0.50;;;;;;;11.82;65.66;98132.78;10429615;28;20443;-61
2023/10/31 01:10:56;;;;;;;0.20;0.20;;;;;;;11.76;65.84;98141.19;10451112;28;20197;-62
2023/10/31 01:15:58;;;;;;;0.85;0.52;;;;;;;11.78;65.79;98149.75;10422046;28;20392;-62
2023/10/31 01:21:01;;;;;;;0.50;0.50;;;;;;;11.87;65.58;98144.47;10450850;28;20060;-62
2023/10/31 01:26:03;;;;;;;0.20;0.20;;;;;;;11.95;65.51;98155.06;10451216;28;20060;-62
2023/10/31 01:31:06;;;;;;;0.20;0.20;;;;;;;11.96;65.05;98151.47;10432158;28;20045;-62
2023/10/31 01:36:10;;;;;;;0.20;0.20;;;;;;;11.93;64.84;98153.53;10449227;28;20084;-62
2023/10/31 01:41:12;;;;;;;1.08;0.35;;;;;;;11.72;65.32;98155.53;10453436;28;20076;-62
2023/10/31 01:46:14;;;;;;;0.20;0.20;;;;;;;11.73;65.35;98157.19;10446096;28;20060;-62
2023/10/31 01:51:17;;;;;;;4.30;1.17;;;;;;;11.75;65.21;98165.72;10423837;28;20049;-63
2023/10/31 01:56:20;;;;;;;0.30;0.30;;;;;;;11.82;65.36;98175.50;10454965;28;20052;-62
2023/10/31 02:01:22;;;;;;;0.35;0.35;;;;;;;11.84;64.85;98178.81;10431792;28;20282;-62
2023/10/31 02:06:26;;;;;;;0.28;0.28;;;;;;;11.74;64.99;98182.41;10442742;28;20289;-62
2023/10/31 02:11:28;;;;;;;0.45;0.38;;;;;;;11.61;64.78;98185.34;10427336;28;20040;-62
2023/10/31 02:16:30;;;;;;;0.70;0.52;;;;;;;11.51;64.79;98175.84;10453943;28;20169;-62
2023/10/31 02:21:33;;;;;;;0.30;0.30;;;;;;;11.50;64.69;98184.66;10412506;28;20523;-62
2023/10/31 02:26:35;;;;;;;0.40;0.40;;;;;;;11.54;64.72;98188.66;10439329;28;20488;-62
2023/10/31 02:31:38;;;;;;;0.43;0.22;;;;;;;11.57;64.21;98196.22;10442622;28;20045;-62
2023/10/31 02:36:40;;;;;;;0.93;0.50;;;;;;;11.54;64.48;98217.47;10449127;28;20475;-62
2023/10/31 02:41:43;;;;;;;0.32;0.32;;;;;;;11.50;64.63;98206.41;10446414;28;20492;-62
2023/10/31 02:46:45;;;;;;;0.55;0.40;;;;;;;11.43;64.53;98207.13;10444517;28;20080;-62
2023/10/31 02:51:47;;;;;;;0.38;0.38;;;;;;;11.49;64.36;98211.78;10448443;28;20045;-62
2023/10/31 02:56:51;;;;;;;0.40;0.40;;;;;;;11.57;64.25;98211.94;10447005;28;20207;-62
2023/10/31 03:01:53;;;;;;;0.50;0.40;;;;;;;11.44;63.98;98206.97;10434067;28;20579;-62
2023/10/31 03:06:55;;;;;;;0.40;0.38;;;;;;;11.32;63.90;98214.16;10445252;28;20049;-62
2023/10/31 03:11:57;;;;;;;0.32;0.32;;;;;;;11.19;64.18;98210.16;10441592;28;20045;-62
2023/10/31 03:17:00;;;;;;;0.40;0.40;;;;;;;11.05;64.19;98224.44;10439725;28;20045;-62
2023/10/31 03:22:02;;;;;;;0.40;0.30;;;;;;;10.81;64.30;98244.88;10442945;28;20432;-63
2023/10/31 03:27:04;;;;;;;0.40;0.40;;;;;;;10.82;64.67;98238.72;10450506;28;20079;-63
2023/10/31 03:32:07;;;;;;;0.30;0.30;;;;;;;10.79;64.78;98240.75;10451530;28;20053;-63
2023/10/31 03:37:09;;;;;;;0.45;0.32;;;;;;;10.80;64.70;98243.25;10454587;28;20514;-64
2023/10/31 03:42:11;;;;;;;0.30;0.30;;;;;;;10.73;64.75;98246.50;10452671;28;20080;-63
2023/10/31 03:47:13;;;;;;;0.32;0.30;;;;;;;10.70;64.79;98242.38;10450823;28;20126;-63
2023/10/31 03:52:16;;;;;;;0.40;0.40;;;;;;;10.68;65.06;98254.78;10435169;28;20033;-63
2023/10/31 03:57:18;;;;;;;0.25;0.25;;;;;;;10.58;65.06;98259.13;10451835;28;20051;-63
2023/10/31 04:02:20;;;;;;;0.35;0.28;;;;;;;10.46;65.10;98261.00;10448429;28;20125;-63
2023/10/31 04:07:22;;;;;;;0.65;0.45;;;;;;;10.51;65.52;98268.44;10426964;28;20437;-63
2023/10/31 04:12:25;;;;;;;0.30;0.30;;;;;;;10.62;65.23;98270.97;10453902;28;20049;-63
2023/10/31 04:17:27;;;;;;;1.30;0.80;;;;;;;10.69;65.01;98277.31;10446536;28;20182;-63
2023/10/31 04:22:29;;;;;;;0.50;0.50;;;;;;;10.66;65.13;98287.22;10442822;28;20135;-63
2023/10/31 04:27:32;;;;;;;0.65;0.30;;;;;;;10.70;64.99;98297.28;10449331;28;20053;-63
2023/10/31 04:32:34;;;;;;;0.40;0.40;;;;;;;10.74;65.13;98298.69;10446718;28;20315;-63
2023/10/31 04:37:36;;;;;;;0.32;0.32;;;;;;;10.82;64.98;98304.09;10444692;28;20053;-63
2023/10/31 04:42:40;;;;;;;0.38;0.38;;;;;;;10.80;65.11;98302.56;10448838;28;20049;-63
2023/10/31 04:47:43;;;;;;;0.50;0.50;;;;;;;10.74;65.95;98310.94;10433583;28;20082;-63
2023/10/31 04:52:45;;;;;;;0.65;0.60;;;;;;;10.77;66.10;98329.78;10453451;28;20248;-63
2023/10/31 04:57:47;;;;;;;0.80;0.60;;;;;;;10.81;65.98;98332.94;10448048;28;20389;-63
2023/10/31 05:02:49;;;;;;;0.68;0.52;;;;;;;10.82;66.18;98335.47;10450250;28;20048;-63
2023/10/31 05:07:51;;;;;;;0.43;0.28;;;;;;;10.91;65.91;98339.09;10450336;28;20508;-63
2023/10/31 05:12:53;;;;;;;0.40;0.40;;;;;;;11.01;65.75;98342.56;10444498;28;20052;-63
2023/10/31 05:17:55;;;;;;;0.60;0.60;;;;;;;11.04;65.33;98340.53;10435479;28;20121;-64
2023/10/31 05:22:58;;;;;;;5.38;2.17;;;;;;;11.15;65.11;98329.13;10459101;28;20123;-63
2023/10/31 05:28:00;;;;;;;1.58;1.08;;;;;;;11.22;65.10;98320.59;10444612;28;20412;-63
2023/10/31 05:33:02;;;;;;;0.65;0.50;;;;;;;11.19;65.14;98333.13;10446357;28;20384;-63
2023/10/31 05:38:04;;;;;;;1.38;0.70;;;;;;;11.16;65.00;98342.06;10453517;28;20054;-64
2023/10/31 05:43:07;;;;;;;0.60;0.60;;;;;;;11.20;64.81;98338.22;10445415;28;20052;-63
2023/10/31 05:48:09;;;;;;;0.85;0.68;;;;;;;11.16;64.58;98355.16;10448563;28;20861;-63
2023/10/31 05:53:11;;;;;;;0.60;0.50;;;;;;;11.08;64.17;98352.38;10439635;28;20049;-62
2023/10/31 05:58:13;;;;;;;0.98;0.90;;;;;;;11.20;64.50;98351.31;10441037;28;20625;-63
2023/10/31 06:03:17;;;;;;;3.22;1.58;;;;;;;11.14;64.36;98364.09;10450788;28;20040;-62
2023/10/31 06:08:20;;;;;;;0.70;0.70;;;;;;;11.15;64.40;98358.72;10448771;28;20045;-63
2023/10/31 06:13:22;;;;;;;0.40;0.40;;;;;;;11.11;64.31;98373.03;10445079;28;20438;-62
2023/10/31 06:18:24;;;;;;;0.80;0.73;;;;;;;11.11;64.30;98378.25;10441884;28;20500;-62
2023/10/31 06:23:30;;;;;;;0.55;0.55;;;;;;;11.23;64.22;98379.81;10447503;28;20048;-62
2023/10/31 06:28:36;;;;;;;0.60;0.60;;;;;;;11.28;64.15;98395.13;10453191;28;20056;-62
2023/10/31 06:33:47;;;;;;;0.50;0.50;;;;;;;11.32;64.18;98403.56;10441964;28;20743;-61
2023/10/31 06:38:49;;;;;;;1.00;0.40;;;;;;;11.46;63.53;98403.19;10437930;28;20044;-62
2023/10/31 06:43:51;;;;;;;1.10;1.00;;;;;;;11.43;63.39;98408.66;10439075;28;20496;-62
2023/10/31 06:48:53;;;;;;;0.50;0.50;;;;;;;11.42;63.45;98430.59;10421651;28;21634;-62
2023/10/31 06:53:55;;;;;;;0.50;0.50;;;;;;;11.44;63.38;98442.56;10418748;28;20683;-62
2023/10/31 06:58:57;;;;;;;0.80;0.80;;;;;;;11.50;62.98;98456.94;10440862;28;20092;-62
2023/10/31 07:04:00;;;;;;;1.02;0.73;;;;;;;11.51;62.99;98461.19;10406676;28;20228;-61
2023/10/31 07:09:05;;;;;;;0.93;0.68;;;;;;;11.65;62.91;98477.38;10449308;28;20479;-68
2023/10/31 07:14:07;;;;;;;3.28;1.13;;;;;;;11.69;62.48;98478.75;10450871;28;21595;-68
2023/10/31 07:19:09;;;;;;;0.65;0.65;;;;;;;11.55;62.65;98497.44;10416625;28;20045;-68
2023/10/31 07:24:12;;;;;;;0.70;0.63;;;;;;;11.48;63.00;98491.06;10441011;28;20546;-67
2023/10/31 07:29:16;;;;;;;0.95;0.85;;;;;;;11.52;63.00;98502.13;10429397;28;20079;-67
2023/10/31 07:34:19;;;;;;;2.67;0.80;;;;;;;11.38;63.21;98503.28;10431216;28;20528;-67
2023/10/31 07:39:22;;;;;;;1.13;1.00;;;;;;;11.31;63.46;98504.78;10443203;28;20396;-68
2023/10/31 07:44:26;;;;;;;1.13;0.88;;;;;;;11.38;63.37;98510.34;10447780;28;20057;-67
2023/10/31 07:49:28;;;;;;;3.45;1.00;;;;;;;11.51;63.16;98511.78;10436829;28;20059;-67
2023/10/31 07:54:30;;;;;;;1.08;0.73;;;;;;;11.54;63.02;98516.72;10446857;28;20044;-67
2023/10/31 07:59:35;;;;;;;0.95;0.88;;;;;;;11.52;62.87;98513.41;10455940;28;20036;-67
2023/10/31 08:04:38;;;;;;;7.00;0.90;;;;;;;11.58;62.97;98517.31;10452190;28;20048;-67
2023/10/31 08:09:40;;;;;;;0.50;0.50;;;;;;;11.73;62.82;98522.03;10455722;28;20094;-68
2023/10/31 08:14:42;;;;;;;1.30;0.90;;;;;;;11.90;62.41;98521.41;10447932;28;20524;-68
2023/10/31 08:19:44;;;;;;;0.70;0.70;;;;;;;11.85;62.27;98535.84;10452378;28;20068;-69
2023/10/31 08:24:46;;;;;;;0.63;0.63;;;;;;;11.93;62.38;98543.88;10434382;28;20496;-68
2023/10/31 08:29:48;;;;;;;0.88;0.68;;;;;;;12.03;62.17;98557.84;10451194;28;20052;-67
2023/10/31 08:34:50;;;;;;;0.80;0.80;;;;;;;12.06;61.98;98554.97;10444527;28;20052;-67
2023/10/31 08:39:52;;;;;;;0.73;0.60;;;;;;;11.98;61.93;98570.53;10446032;28;20045;-69
2023/10/31 08:44:54;;;;;;;1.17;0.90;;;;;;;11.93;61.90;98576.16;10444834;28;20974;-68
2023/10/31 08:49:56;;;;;;;0.70;0.70;;;;;;;11.99;61.59;98585.25;10451362;28;21043;-69
2023/10/31 08:54:58;;;;;;;2.05;1.35;;;;;;;12.06;61.23;98591.66;10446199;28;20538;-67
2023/10/31 09:00:01;;;;;;;1.25;0.80;;;;;;;12.24;61.04;98594.44;10435644;28;20060;-69
2023/10/31 09:05:05;;;;;;;1.60;0.90;;;;;;;12.11;60.93;98598.13;10446116;28;20041;-67
2023/10/31 09:10:07;;;;;;;1.58;0.73;;;;;;;12.14;60.69;98612.78;10447836;28;20058;-67
2023/10/31 09:15:10;;;;;;;1.55;1.10;;;;;;;12.26;60.34;98631.84;10447437;28;20045;-69
2023/10/31 09:20:13;;;;;;;3.08;0.93;;;;;;;12.23;60.18;98635.59;10457375;28;20373;-69
2023/10/31 09:25:15;;;;;;;13.82;1.10;;;;;;;12.20;60.34;98645.47;10449498;28;20045;-68
2023/10/31 09:30:17;;;;;;;1.05;0.65;;;;;;;12.20;59.85;98635.00;10439514;28;20057;-68
2023/10/31 09:35:19;;;;;;;0.50;0.50;;;;;;;12.35;59.91;98637.16;10446263;28;20674;-68
2023/10/31 09:40:22;;;;;;;1.08;0.80;;;;;;;12.53;59.12;98642.56;10452366;28;20044;-68
2023/10/31 09:45:24;;;;;;;1.95;0.50;;;;;;;12.82;58.69;98649.50;10434478;28;20048;-68
2023/10/31 09:50:26;;;;;;;0.68;0.68;;;;;;;12.76;57.95;98651.88;10438800;28;20328;-68
2023/10/31 09:55:29;;;;;;;2.15;1.35;;;;;;;12.49;58.17;98641.19;10454622;28;20043;-68
2023/10/31 10:00:31;;;;;;;1.63;0.98;;;;;;;12.24;58.97;98658.19;10454936;28;20056;-68
2023/10/31 10:05:35;;;;;;;5.97;1.90;;;;;;;12.18;58.84;98663.97;10455650;28;20088;-68
2023/10/31 10:10:37;;;;;;;3.00;1.15;;;;;;;12.47;58.88;98661.47;10450296;28;20465;-69
2023/10/31 10:15:52;;;;;;;2.15;1.00;;;;;;;12.81;57.60;98662.78;10449785;28;20048;-68
2023/10/31 10:20:59;;;;;;;0.93;0.80;;;;;;;12.95;58.19;98660.59;10451354;28;20057;-67
2023/10/31 10:26:02;;;;;;;0.70;0.60;;;;;;;13.04;58.17;98658.09;10451859;28;20056;-66
2023/10/31 10:31:06;;;;;;;1.02;0.80;;;;;;;13.11;57.79;98667.09;10453172;28;20056;-67
2023/10/31 10:36:10;;;;;;;3.15;0.75;;;;;;;12.93;57.13;98683.50;10452759;28;20066;-67
2023/10/31 10:41:16;;;;;;;1.92;0.90;;;;;;;13.12;56.03;98677.44;10456881;28;20060;-67
2023/10/31 10:46:20;;;;;;;0.50;0.50;;;;;;;13.18;56.15;98691.81;10460569;28;20110;-67
2023/10/31 10:51:28;;;;;;;1.92;1.02;;;;;;;13.38;56.15;98688.22;10461791;28;20075;-67
2023/10/31 10:56:37;;;;;;;0.77;0.60;;;;;;;13.32;55.92;98691.41;10463008;28;20052;-67
2023/10/31 11:01:41;;;;;;;0.55;0.55;;;;;;;13.32;55.29;98678.28;10461900;28;20041;-67
2023/10/31 11:06:45;;;;;;;0.82;0.82;;;;;;;13.17;54.94;98683.09;10446443;28;20049;-66
2023/10/31 11:11:49;;;;;;;2.00;0.95;;;;;;;13.14;56.13;98679.94;10461479;28;20044;-67
2023/10/31 11:16:52;;;;;;;0.50;0.50;;;;;;;13.13;55.44;98683.53;10461794;28;20060;-67
2023/10/31 11:22:00;;;;;;;0.65;0.60;;;;;;;13.13;55.52;98670.41;10455754;28;20359;-68
2023/10/31 11:27:05;;;;;;;1.90;0.80;;;;;;;13.21;55.89;98686.31;10436072;28;20053;-68
2023/10/31 11:32:11;;;;;;;0.50;0.50;;;;;;;13.32;55.24;98691.41;10462236;28;20053;-68
2023/10/31 11:37:28;;;;;;;1.30;0.85;;;;;;;13.45;54.82;98692.00;10458264;28;20048;-68
2023/10/31 11:42:33;;;;;;;2.10;0.80;;;;;;;13.19;55.24;98694.28;10458982;28;20052;-68
2023/10/31 11:47:48;;;;;;;0.85;0.70;;;;;;;13.08;55.09;98696.22;10466229;28;20163;-68
2023/10/31 11:53:14;;;;;;;0.70;0.70;;;;;;;13.08;54.72;98696.22;10453745;28;20490;-67
2023/10/31 11:58:30;;;;;;;4.78;0.80;;;;;;;13.30;55.22;98695.97;10456987;28;20124;-67
2023/10/31 12:03:40;;;;;;;1.85;0.98;;;;;;;13.38;54.65;98693.47;10442324;28;20063;-66
2023/10/31 12:08:43;;;;;;;2.83;0.90;;;;;;;13.84;54.71;98693.56;10435812;28;20526;-67
2023/10/31 12:13:58;;;;;;;0.60;0.52;;;;;;;14.06;52.80;98690.63;10465415;28;20462;-66
2023/10/31 12:19:01;;;;;;;1.80;1.02;;;;;;;14.48;53.73;98686.56;10449541;28;20053;-68
2023/10/31 12:24:16;;;;;;;1.75;0.70;;;;;;;14.54;53.13;98686.00;10454395;28;20048;-68
2023/10/31 12:33:10;;;;;;;3.10;1.05;;;;;;;13.79;54.21;98719.47;10467158;28;20160;-67
2023/10/31 12:38:14;;;;;;;1.80;1.40;;;;;;;13.64;53.97;98726.09;10469394;28;20049;-67
2023/10/31 12:43:17;;;;;;;14.00;2.25;;;;;;;13.68;54.34;98723.06;10467313;28;20041;-67
2023/10/31 12:48:25;;;;;;;4.60;1.60;;;;;;;13.72;53.84;98731.47;10464416;28;20041;-67
2023/10/31 12:53:27;;;;;;;1.77;0.98;;;;;;;13.55;53.93;98726.97;10466858;28;20048;-67
2023/10/31 12:58:29;;;;;;;1.25;1.00;;;;;;;13.65;52.76;98730.41;10465491;28;20045;-67
2023/10/31 13:03:31;;;;;;;1.38;0.85;;;;;;;13.70;53.34;98733.44;10466604;28;20029;-67
2023/10/31 13:08:34;;;;;;;1.00;0.80;;;;;;;13.46;53.61;98725.97;10467682;28;20052;-67
2023/10/31 13:13:36;;;;;;;1.98;0.70;;;;;;;13.66;54.03;98732.03;10466223;28;20395;-66
2023/10/31 13:18:38;;;;;;;1.92;0.80;;;;;;;14.27;53.37;98735.94;10465459;28;20483;-67
2023/10/31 13:23:44;;;;;;;5.00;1.15;;;;;;;14.38;52.94;98732.28;10463493;28;20151;-66
2023/10/31 13:28:47;;;;;;;1.80;0.55;;;;;;;14.59;52.90;98741.63;10463401;28;20135;-68
2023/10/31 13:33:49;;;;;;;1.70;0.80;;;;;;;14.45;52.50;98739.47;10465152;28;20412;-68
2023/10/31 13:38:52;;;;;;;3.30;0.80;;;;;;;14.30;52.88;98735.66;10443919;28;20040;-68
2023/10/31 13:43:54;;;;;;;0.73;0.57;;;;;;;14.29;52.66;98733.16;10437110;28;20044;-68
2023/10/31 13:48:56;;;;;;;1.08;0.80;;;;;;;14.35;52.72;98732.59;10436593;28;20056;-67
2023/10/31 13:53:58;;;;;;;1.15;0.70;;;;;;;14.55;52.77;98739.47;10437095;28;20750;-67
2023/10/31 13:59:00;;;;;;;3.28;0.80;;;;;;;14.64;51.92;98753.53;10435942;28;20053;-68
2023/10/31 14:04:02;;;;;;;2.78;0.80;;;;;;;14.88;51.97;98738.06;10434666;28;20044;-68
2023/10/31 14:09:07;;;;;;;0.52;0.43;;;;;;;14.93;51.70;98744.53;10433355;28;20051;-68
2023/10/31 14:14:10;;;;;;;1.35;0.60;;;;;;;15.31;50.99;98743.44;10431045;28;20503;-68
2023/10/31 14:19:16;;;;;;;1.25;0.80;;;;;;;15.44;50.62;98751.78;10432910;28;20512;-68
2023/10/31 14:24:18;;;;;;;1.40;0.70;;;;;;;15.57;50.11;98760.16;10435273;28;20527;-68
2023/10/31 14:29:20;;;;;;;0.88;0.60;;;;;;;15.59;50.35;98762.66;10434119;28;20056;-68
2023/10/31 14:34:23;;;;;;;0.80;0.52;;;;;;;15.57;50.21;98775.97;10432904;28;20053;-68
2023/10/31 14:39:25;;;;;;;1.90;1.17;;;;;;;15.44;50.12;98786.06;10427695;28;20056;-68
2023/10/31 14:44:27;;;;;;;0.52;0.52;;;;;;;15.18;50.08;98785.13;10433208;28;20057;-68
2023/10/31 14:49:29;;;;;;;1.73;0.63;;;;;;;14.95;49.94;98783.84;10433063;28;20565;-67
2023/10/31 14:54:32;;;;;;;2.55;1.05;;;;;;;14.71;50.70;98794.09;10430847;28;20053;-67
2023/10/31 14:59:34;;;;;;;1.50;0.98;;;;;;;14.55;51.14;98808.69;10434313;28;20085;-68
2023/10/31 15:04:36;;;;;;;1.92;0.70;;;;;;;14.27;51.43;98808.72;10432770;28;20500;-67
2023/10/31 15:09:38;;;;;;;0.50;0.50;;;;;;;14.17;51.65;98816.66;10431914;28;20067;-67
2023/10/31 15:14:40;;;;;;;0.73;0.73;;;;;;;13.96;52.24;98815.16;10434031;28;20036;-69
2023/10/31 15:19:43;;;;;;;1.42;0.80;;;;;;;13.85;52.78;98821.38;10432083;28;20975;-69
2023/10/31 15:24:45;;;;;;;2.90;0.90;;;;;;;13.77;52.24;98827.34;10432896;28;20052;-67
2023/10/31 15:29:47;;;;;;;1.10;0.77;;;;;;;13.82;52.83;98828.72;10431047;28;20092;-69
2023/10/31 15:34:50;;;;;;;1.10;0.77;;;;;;;13.81;52.95;98827.88;10430586;28;20052;-67
2023/10/31 15:39:52;;;;;;;2.10;0.82;;;;;;;13.74;53.18;98838.13;10429767;28;20055;-67
2023/10/31 15:44:57;;;;;;;7.80;2.05;;;;;;;13.60;53.85;98835.91;10431801;28;20069;-67
2023/10/31 15:49:59;;;;;;;1.17;0.88;;;;;;;13.57;53.76;98843.22;10431509;28;20053;-67
2023/10/31 15:55:01;;;;;;;1.52;1.00;;;;;;;13.41;53.97;98856.03;10429061;28;20045;-67
2023/10/31 16:00:08;;;;;;;1.38;1.05;;;;;;;13.17;54.36;98852.94;10425184;28;20041;-67
2023/10/31 16:05:10;;;;;;;1.55;0.90;;;;;;;13.11;54.74;98871.84;10426022;28;20045;-67
2023/10/31 16:10:12;;;;;;;1.40;1.10;;;;;;;13.08;55.07;98869.47;10428429;28;20159;-67
2023/10/31 16:15:15;;;;;;;3.05;0.75;;;;;;;13.08;55.08;98875.56;10430957;28;20051;-67
2023/10/31 16:20:17;;;;;;;1.42;1.10;;;;;;;13.04;55.50;98883.81;10430205;28;20051;-68
2023/10/31 16:25:19;;;;;;;2.25;1.08;;;;;;;12.93;55.66;98896.06;10428875;28;20389;-64
2023/10/31 16:30:21;;;;;;;2.92;0.77;;;;;;;12.71;55.90;98891.00;10426000;28;20053;-66
2023/10/31 16:35:23;;;;;;;2.47;1.10;;;;;;;12.71;56.21;98906.75;10426480;28;20048;-64
2023/10/31 16:40:26;;;;;;;1.70;1.00;;;;;;;12.70;56.23;98917.38;10432971;28;20073;-64
2023/10/31 16:45:28;;;;;;;0.82;0.70;;;;;;;12.57;56.71;98921.97;10430278;28;20065;-65
2023/10/31 16:50:32;;;;;;;1.45;1.00;;;;;;;12.73;56.45;98917.94;10432659;28;20127;-65
2023/10/31 16:55:34;;;;;;;1.33;0.80;;;;;;;12.79;56.57;98914.78;10432333;28;20045;-64
2023/10/31 17:00:38;;;;;;;0.80;0.57;;;;;;;12.80;56.50;98913.81;10431415;28;20420;-64
2023/10/31 17:05:42;;;;;;;0.98;0.88;;;;;;;12.85;56.90;98922.16;10431237;28;20135;-64
2023/10/31 17:10:44;;;;;;;2.03;1.15;;;;;;;12.92;56.71;98932.97;10422279;28;20060;-64
2023/10/31 17:15:46;;;;;;;1.88;1.08;;;;;;;12.91;56.46;98932.13;10431814;28;20068;-64
2023/10/31 17:20:48;;;;;;;1.83;0.70;;;;;;;12.98;56.77;98927.19;10439543;28;20415;-64
2023/10/31 17:25:51;;;;;;;3.20;1.20;;;;;;;12.93;56.71;98930.19;10439884;28;20067;-65
2023/10/31 17:30:54;;;;;;;1.88;0.90;;;;;;;12.97;56.79;98938.63;10438781;28;20079;-64
2023/10/31 17:35:56;;;;;;;1.45;0.93;;;;;;;12.95;57.02;98949.28;10439807;28;20072;-65
2023/10/31 17:40:58;;;;;;;0.60;0.60;;;;;;;13.03;57.00;98958.28;10427110;28;20045;-64
2023/10/31 17:46:00;;;;;;;1.13;0.90;;;;;;;12.98;57.37;98965.72;10437166;28;20056;-65
2023/10/31 17:51:03;;;;;;;1.92;1.15;;;;;;;13.06;57.56;98965.91;10429795;28;20146;-64
2023/10/31 17:56:06;;;;;;;1.13;0.90;;;;;;;13.01;57.41;98974.16;10437990;28;20053;-64
2023/10/31 18:01:08;;;;;;;2.67;0.73;;;;;;;12.98;57.63;98984.09;10435804;28;20575;-64
2023/10/31 18:06:10;;;;;;;1.55;0.70;;;;;;;12.95;57.78;98986.00;10438774;28;20404;-64
2023/10/31 18:11:12;;;;;;;0.52;0.52;;;;;;;12.80;58.19;98995.16;10429030;28;20049;-64
2023/10/31 18:16:15;;;;;;;1.25;0.93;;;;;;;12.73;58.65;98999.28;10437605;28;20780;-64
2023/10/31 18:21:17;;;;;;;0.60;0.60;;;;;;;12.75;59.00;99018.34;10436250;28;20049;-64
2023/10/31 18:26:19;;;;;;;2.88;0.80;;;;;;;12.72;59.15;99015.16;10436168;28;20053;-64
2023/10/31 18:31:22;;;;;;;1.25;0.85;;;;;;;12.56;60.03;99012.94;10436351;28;20053;-65
2023/10/31 18:36:25;;;;;;;1.00;0.70;;;;;;;12.37;60.45;99025.91;10431988;28;20050;-64
2023/10/31 18:41:39;;;;;;;0.68;0.68;;;;;;;12.20;60.56;99023.78;10433843;28;20088;-65
2023/10/31 18:46:41;;;;;;;0.70;0.70;;;;;;;12.06;60.92;99024.06;10431363;28;20508;-64
2023/10/31 18:51:43;;;;;;;0.98;0.70;;;;;;;11.96;61.12;99026.59;10433216;28;20159;-64
2023/10/31 18:56:45;;;;;;;0.95;0.80;;;;;;;11.88;61.46;99034.22;10433405;28;20060;-64
2023/10/31 19:01:48;;;;;;;3.35;0.98;;;;;;;11.88;61.66;99030.75;10432107;28;20049;-64
2023/10/31 19:06:51;;;;;;;1.35;1.13;;;;;;;11.88;61.40;99030.75;10430985;28;20580;-64
2023/10/31 19:11:53;;;;;;;1.95;0.75;;;;;;;11.85;61.51;99034.44;10430469;28;20060;-64
2023/10/31 19:16:55;;;;;;;3.38;1.13;;;;;;;11.83;62.29;99030.28;10433359;28;20519;-64
2023/10/31 19:21:58;;;;;;;1.00;0.70;;;;;;;11.90;61.65;99037.56;10433181;28;20045;-64
2023/10/31 19:27:00;;;;;;;1.25;0.70;;;;;;;11.87;61.69;99035.16;10431792;28;20045;-63
2023/10/31 19:32:02;;;;;;;5.85;1.10;;;;;;;11.84;61.50;99040.66;10425784;28;20354;-64
2023/10/31 19:37:05;;;;;;;2.42;0.63;;;;;;;11.72;61.81;99054.69;10429677;28;20116;-63
2023/10/31 19:42:08;;;;;;;0.95;0.85;;;;;;;11.65;61.86;99050.91;10421381;28;20049;-63
2023/10/31 19:47:12;;;;;;;0.70;0.68;;;;;;;11.64;61.97;99071.97;10421391;28;20051;-63
2023/10/31 19:52:16;;;;;;;0.60;0.60;;;;;;;11.53;62.43;99064.94;10430364;28;20056;-64
2023/10/31 19:57:21;;;;;;;1.75;1.10;;;;;;;11.64;62.32;99066.75;10428867;28;20041;-63
2023/10/31 20:02:25;;;;;;;1.30;0.95;;;;;;;11.67;62.26;99069.94;10430875;28;20049;-64
2023/10/31 20:07:32;;;;;;;4.13;1.05;;;;;;;11.75;62.17;99078.03;10425599;28;20060;-63
2023/10/31 20:12:35;;;;;;;7.78;1.15;;;;;;;11.83;61.85;99077.44;10424816;28;20041;-64
2023/10/31 20:17:38;;;;;;;2.05;0.80;;;;;;;11.90;61.61;99076.84;10418146;28;20049;-64
2023/10/31 20:22:41;;;;;;;0.95;0.80;;;;;;;11.92;61.88;99077.56;10426001;28;20040;-65
2023/10/31 20:27:44;;;;;;;1.00;0.80;;;;;;;11.99;61.51;99080.50;10421713;28;20056;-65
2023/10/31 20:32:46;;;;;;;0.82;0.82;;;;;;;12.15;61.39;99083.56;10424810;28;20045;-65
2023/10/31 20:37:52;;;;;;;1.23;0.82;;;;;;;12.17;61.14;99081.69;10429328;28;20122;-65
2023/10/31 20:42:54;;;;;;;1.10;0.68;;;;;;;12.24;61.03;99097.75;10428763;28;20045;-65
2023/10/31 20:47:56;;;;;;;1.42;1.00;;;;;;;12.19;61.02;99090.28;10430156;28;20095;-65
2023/10/31 20:53:00;;;;;;;2.10;1.27;;;;;;;12.21;61.02;99088.38;10435710;28;20059;-65
2023/10/31 20:58:03;;;;;;;2.35;1.30;;;;;;;12.15;61.03;99094.06;10438890;28;20130;-65
2023/10/31 21:03:06;;;;;;;2.47;1.40;;;;;;;12.15;61.30;99107.16;10438385;28;20055;-65
2023/10/31 21:08:08;;;;;;;3.38;1.02;;;;;;;12.18;61.78;99104.31;10438218;28;20045;-65
2023/10/31 21:13:11;;;;;;;4.05;1.65;;;;;;;12.08;62.63;99108.63;10437230;28;20053;-65
2023/10/31 21:18:13;;;;;;;1.35;0.98;;;;;;;12.00;63.00;99103.16;10439368;28;20048;-65
2023/10/31 21:23:15;;;;;;;1.73;1.27;;;;;;;11.94;63.61;99106.25;10436966;28;20076;-63
2023/10/31 21:28:17;;;;;;;2.17;1.13;;;;;;;11.98;63.46;99099.81;10437917;28;20055;-65
2023/10/31 21:33:23;;;;;;;3.05;1.48;;;;;;;11.93;63.76;99092.31;10431409;28;20044;-65
2023/10/31 21:38:26;;;;;;;2.42;1.42;;;;;;;12.02;63.75;99091.59;10435502;28;20136;-65
2023/10/31 21:43:28;;;;;;;1.48;0.95;;;;;;;12.05;63.93;99090.50;10436685;28;20052;-63
2023/10/31 21:48:30;;;;;;;2.72;0.85;;;;;;;12.09;63.78;99084.06;10437083;28;20095;-63
2023/10/31 21:53:32;;;;;;;3.45;0.90;;;;;;;12.13;64.08;99082.88;10437225;28;20088;-63
2023/10/31 21:58:34;;;;;;;3.78;1.35;;;;;;;12.09;64.26;99092.78;10431886;28;20052;-63
2023/10/31 22:03:41;;;;;;;3.83;1.10;;;;;;;12.03;64.69;99095.88;10430904;28;20045;-65
2023/10/31 22:08:44;;;;;;;2.83;1.20;;;;;;;12.04;64.59;99094.94;10431655;28;20090;-64
2023/10/31 22:13:46;;;;;;;1.17;0.90;;;;;;;12.03;64.79;99084.56;10435711;28;20080;-63
2023/10/31 22:18:48;;;;;;;2.65;0.85;;;;;;;12.13;64.73;99086.34;10438381;28;20041;-65
2023/10/31 22:23:50;;;;;;;1.17;1.08;;;;;;;12.19;64.72;99082.41;10435893;28;20108;-63
2023/10/31 22:28:52;;;;;;;5.47;1.45;;;;;;;12.18;64.87;99088.59;10435488;28;20408;-64
2023/10/31 22:33:54;;;;;;;1.38;0.82;;;;;;;12.05;64.58;99083.50;10436529;28;20138;-64
2023/10/31 22:38:56;;;;;;;1.13;0.95;;;;;;;11.92;64.72;99093.28;10436505;28;20079;-62
2023/10/31 22:43:58;;;;;;;2.35;1.50;;;;;;;11.86;64.88;99087.69;10433492;28;20119;-63
2023/10/31 22:49:01;;;;;;;2.92;1.75;;;;;;;11.78;65.06;99085.66;10435878;28;20523;-64
2023/10/31 22:54:03;;;;;;;1.85;1.25;;;;;;;11.63;65.45;99079.00;10436104;28;20650;-65
2023/10/31 22:59:05;;;;;;;4.88;2.70;;;;;;;11.57;65.34;99081.25;10434283;28;20076;-64
2023/10/31 23:04:07;;;;;;;4.63;1.70;;;;;;;11.52;65.61;99083.41;10434894;28;20045;-65
2023/10/31 23:09:09;;;;;;;7.25;1.70;;;;;;;11.36;65.80;99077.66;10433313;28;20131;-65
2023/10/31 23:14:17;;;;;;;3.25;1.20;;;;;;;11.32;66.04;99095.38;10432234;28;20052;-65
2023/10/31 23:19:19;;;;;;;3.80;1.65;;;;;;;11.25;66.40;99092.38;10434856;28;20041;-65
2023/10/31 23:24:21;;;;;;;3.55;1.05;;;;;;;11.29;66.50;99091.19;10431820;28;20102;-65
2023/10/31 23:29:23;;;;;;;2.58;1.30;;;;;;;11.47;66.36;99091.59;10434279;28;20053;-65